sensor_id;sensor_type;location;lat;lon;timestamp;P1;durP1;ratioP1;P2;durP2;ratioP2
40953;SDS011;26686;50.130;8.710;2022-12-18T00:00:21;26.23;;;16.95;;
40953;SDS011;26686;50.130;8.710;2022-12-18T00:05:22;26.92;;;17.38;;
40953;SDS011;26686;50.130;8.710;2022-12-18T00:10:24;29.65;;;18.48;;
40953;SDS011;26686;50.130;8.710;2022-12-18T00:15:25;29.83;;;18.73;;
40953;SDS011;26686;50.130;8.710;2022-12-18T00:20:27;30.52;;;18.02;;
40953;SDS011;26686;50.130;8.710;2022-12-18T00:25:29;29.65;;;19.17;;
40953;SDS011;26686;50.130;8.710;2022-12-18T00:30:33;29.92;;;18.92;;
40953;SDS011;26686;50.130;8.710;2022-12-18T00:35:34;30.05;;;18.23;;
40953;SDS011;26686;50.130;8.710;2022-12-18T00:40:36;27.42;;;17.30;;
40953;SDS011;26686;50.130;8.710;2022-12-18T00:45:37;26.52;;;17.27;;
40953;SDS011;26686;50.130;8.710;2022-12-18T00:50:39;30.65;;;19.35;;
40953;SDS011;26686;50.130;8.710;2022-12-18T00:55:41;30.10;;;17.60;;
40953;SDS011;26686;50.130;8.710;2022-12-18T01:00:43;27.05;;;17.63;;
40953;SDS011;26686;50.130;8.710;2022-12-18T01:05:45;27.70;;;17.27;;
40953;SDS011;26686;50.130;8.710;2022-12-18T01:10:46;30.90;;;18.08;;
40953;SDS011;26686;50.130;8.710;2022-12-18T01:15:51;27.58;;;16.63;;
40953;SDS011;26686;50.130;8.710;2022-12-18T01:20:52;26.93;;;16.37;;
40953;SDS011;26686;50.130;8.710;2022-12-18T01:25:54;27.08;;;16.52;;
40953;SDS011;26686;50.130;8.710;2022-12-18T01:30:56;22.73;;;16.00;;
40953;SDS011;26686;50.130;8.710;2022-12-18T01:35:57;28.20;;;17.67;;
40953;SDS011;26686;50.130;8.710;2022-12-18T01:40:59;29.67;;;18.70;;
40953;SDS011;26686;50.130;8.710;2022-12-18T01:46:01;22.75;;;15.95;;
40953;SDS011;26686;50.130;8.710;2022-12-18T01:51:03;28.92;;;17.45;;
40953;SDS011;26686;50.130;8.710;2022-12-18T01:56:07;26.33;;;16.23;;
40953;SDS011;26686;50.130;8.710;2022-12-18T02:01:10;27.83;;;16.27;;
40953;SDS011;26686;50.130;8.710;2022-12-18T02:06:15;29.45;;;17.63;;
40953;SDS011;26686;50.130;8.710;2022-12-18T02:11:26;28.98;;;17.13;;
40953;SDS011;26686;50.130;8.710;2022-12-18T02:16:52;27.83;;;16.80;;
40953;SDS011;26686;50.130;8.710;2022-12-18T02:27:30;26.73;;;16.90;;
40953;SDS011;26686;50.130;8.710;2022-12-18T02:32:35;26.52;;;17.27;;
40953;SDS011;26686;50.130;8.710;2022-12-18T02:37:41;26.15;;;17.05;;
40953;SDS011;26686;50.130;8.710;2022-12-18T02:42:48;30.63;;;18.85;;
40953;SDS011;26686;50.130;8.710;2022-12-18T02:47:50;30.08;;;17.58;;
40953;SDS011;26686;50.130;8.710;2022-12-18T03:03:53;29.98;;;18.65;;
40953;SDS011;26686;50.130;8.710;2022-12-18T03:14:03;28.77;;;17.55;;
40953;SDS011;26686;50.130;8.710;2022-12-18T03:19:11;25.63;;;16.50;;
40953;SDS011;26686;50.130;8.710;2022-12-18T03:24:21;28.23;;;16.77;;
40953;SDS011;26686;50.130;8.710;2022-12-18T03:29:26;24.92;;;15.25;;
40953;SDS011;26686;50.130;8.710;2022-12-18T03:34:34;27.75;;;16.48;;
40953;SDS011;26686;50.130;8.710;2022-12-18T03:55:13;26.85;;;17.48;;
40953;SDS011;26686;50.130;8.710;2022-12-18T04:00:15;24.58;;;15.50;;
40953;SDS011;26686;50.130;8.710;2022-12-18T04:05:19;23.00;;;16.92;;
40953;SDS011;26686;50.130;8.710;2022-12-18T04:10:21;26.30;;;16.42;;
40953;SDS011;26686;50.130;8.710;2022-12-18T04:15:23;26.27;;;15.73;;
40953;SDS011;26686;50.130;8.710;2022-12-18T04:20:25;26.52;;;15.55;;
40953;SDS011;26686;50.130;8.710;2022-12-18T04:25:26;25.25;;;16.70;;
40953;SDS011;26686;50.130;8.710;2022-12-18T04:30:28;25.33;;;16.85;;
40953;SDS011;26686;50.130;8.710;2022-12-18T04:35:29;25.70;;;15.50;;
40953;SDS011;26686;50.130;8.710;2022-12-18T04:40:31;20.80;;;14.68;;
40953;SDS011;26686;50.130;8.710;2022-12-18T04:45:32;22.15;;;14.77;;
40953;SDS011;26686;50.130;8.710;2022-12-18T04:50:34;20.73;;;14.65;;
40953;SDS011;26686;50.130;8.710;2022-12-18T04:55:35;23.00;;;15.13;;
40953;SDS011;26686;50.130;8.710;2022-12-18T05:00:37;22.90;;;16.30;;
40953;SDS011;26686;50.130;8.710;2022-12-18T05:05:39;28.58;;;16.77;;
40953;SDS011;26686;50.130;8.710;2022-12-18T05:10:40;25.08;;;16.35;;
40953;SDS011;26686;50.130;8.710;2022-12-18T05:15:41;25.88;;;18.73;;
40953;SDS011;26686;50.130;8.710;2022-12-18T05:20:43;22.85;;;14.93;;
40953;SDS011;26686;50.130;8.710;2022-12-18T05:25:55;25.02;;;16.25;;
40953;SDS011;26686;50.130;8.710;2022-12-18T05:31:02;27.05;;;17.58;;
40953;SDS011;26686;50.130;8.710;2022-12-18T05:36:05;25.40;;;18.90;;
40953;SDS011;26686;50.130;8.710;2022-12-18T05:41:10;23.60;;;16.25;;
40953;SDS011;26686;50.130;8.710;2022-12-18T05:46:17;24.02;;;17.45;;
40953;SDS011;26686;50.130;8.710;2022-12-18T05:51:20;24.75;;;17.02;;
40953;SDS011;26686;50.130;8.710;2022-12-18T05:56:23;25.25;;;16.45;;
40953;SDS011;26686;50.130;8.710;2022-12-18T06:01:25;24.75;;;16.80;;
40953;SDS011;26686;50.130;8.710;2022-12-18T06:06:27;23.10;;;16.25;;
40953;SDS011;26686;50.130;8.710;2022-12-18T06:11:29;23.02;;;15.32;;
40953;SDS011;26686;50.130;8.710;2022-12-18T06:16:31;23.73;;;16.48;;
40953;SDS011;26686;50.130;8.710;2022-12-18T06:21:34;26.00;;;16.55;;
40953;SDS011;26686;50.130;8.710;2022-12-18T06:26:37;24.00;;;16.42;;
40953;SDS011;26686;50.130;8.710;2022-12-18T06:31:39;25.92;;;16.55;;
40953;SDS011;26686;50.130;8.710;2022-12-18T06:36:41;23.40;;;15.45;;
40953;SDS011;26686;50.130;8.710;2022-12-18T06:41:42;24.85;;;16.65;;
40953;SDS011;26686;50.130;8.710;2022-12-18T06:46:44;25.10;;;15.40;;
40953;SDS011;26686;50.130;8.710;2022-12-18T06:51:45;23.92;;;15.90;;
40953;SDS011;26686;50.130;8.710;2022-12-18T06:56:48;21.60;;;15.70;;
40953;SDS011;26686;50.130;8.710;2022-12-18T07:01:51;22.95;;;15.70;;
40953;SDS011;26686;50.130;8.710;2022-12-18T07:06:53;22.02;;;15.27;;
40953;SDS011;26686;50.130;8.710;2022-12-18T07:11:55;25.27;;;17.08;;
40953;SDS011;26686;50.130;8.710;2022-12-18T07:16:57;22.58;;;15.55;;
40953;SDS011;26686;50.130;8.710;2022-12-18T07:22:00;23.20;;;16.48;;
40953;SDS011;26686;50.130;8.710;2022-12-18T07:27:02;25.92;;;17.48;;
40953;SDS011;26686;50.130;8.710;2022-12-18T07:32:04;25.40;;;16.40;;
40953;SDS011;26686;50.130;8.710;2022-12-18T07:37:06;25.10;;;16.42;;
40953;SDS011;26686;50.130;8.710;2022-12-18T07:42:07;26.63;;;17.85;;
40953;SDS011;26686;50.130;8.710;2022-12-18T07:47:28;24.10;;;16.33;;
40953;SDS011;26686;50.130;8.710;2022-12-18T07:52:31;24.90;;;16.13;;
40953;SDS011;26686;50.130;8.710;2022-12-18T07:57:33;24.10;;;17.35;;
40953;SDS011;26686;50.130;8.710;2022-12-18T08:02:51;23.05;;;16.95;;
40953;SDS011;26686;50.130;8.710;2022-12-18T08:07:53;23.25;;;15.95;;
40953;SDS011;26686;50.130;8.710;2022-12-18T08:12:55;24.83;;;16.48;;
40953;SDS011;26686;50.130;8.710;2022-12-18T08:18:04;24.77;;;17.80;;
40953;SDS011;26686;50.130;8.710;2022-12-18T08:23:11;29.50;;;19.38;;
40953;SDS011;26686;50.130;8.710;2022-12-18T08:28:12;25.63;;;16.52;;
40953;SDS011;26686;50.130;8.710;2022-12-18T08:33:17;26.80;;;17.77;;
40953;SDS011;26686;50.130;8.710;2022-12-18T08:38:18;26.17;;;17.48;;
40953;SDS011;26686;50.130;8.710;2022-12-18T08:43:20;23.52;;;16.85;;
40953;SDS011;26686;50.130;8.710;2022-12-18T08:48:43;23.45;;;16.48;;
40953;SDS011;26686;50.130;8.710;2022-12-18T08:53:45;25.70;;;16.85;;
40953;SDS011;26686;50.130;8.710;2022-12-18T08:58:47;25.27;;;17.42;;
40953;SDS011;26686;50.130;8.710;2022-12-18T09:03:52;25.27;;;18.00;;
40953;SDS011;26686;50.130;8.710;2022-12-18T09:08:54;29.27;;;19.55;;
40953;SDS011;26686;50.130;8.710;2022-12-18T09:13:56;25.52;;;18.10;;
40953;SDS011;26686;50.130;8.710;2022-12-18T09:18:58;29.92;;;22.83;;
40953;SDS011;26686;50.130;8.710;2022-12-18T09:24:00;30.98;;;24.83;;
40953;SDS011;26686;50.130;8.710;2022-12-18T09:29:02;53.75;;;38.78;;
40953;SDS011;26686;50.130;8.710;2022-12-18T09:34:04;31.15;;;22.20;;
40953;SDS011;26686;50.130;8.710;2022-12-18T09:39:07;29.75;;;21.27;;
40953;SDS011;26686;50.130;8.710;2022-12-18T09:44:52;33.25;;;23.02;;
40953;SDS011;26686;50.130;8.710;2022-12-18T09:49:46;35.03;;;23.45;;
40953;SDS011;26686;50.130;8.710;2022-12-18T09:55:01;33.38;;;24.25;;
40953;SDS011;26686;50.130;8.710;2022-12-18T10:05:16;33.03;;;24.10;;
40953;SDS011;26686;50.130;8.710;2022-12-18T10:15:51;35.88;;;26.67;;
40953;SDS011;26686;50.130;8.710;2022-12-18T10:21:07;35.17;;;25.02;;
40953;SDS011;26686;50.130;8.710;2022-12-18T10:26:12;39.45;;;28.33;;
40953;SDS011;26686;50.130;8.710;2022-12-18T10:31:19;36.90;;;26.60;;
40953;SDS011;26686;50.130;8.710;2022-12-18T10:36:25;37.35;;;26.80;;
40953;SDS011;26686;50.130;8.710;2022-12-18T10:41:26;36.72;;;25.65;;
40953;SDS011;26686;50.130;8.710;2022-12-18T10:46:29;36.83;;;26.38;;
40953;SDS011;26686;50.130;8.710;2022-12-18T10:51:32;34.47;;;24.83;;
40953;SDS011;26686;50.130;8.710;2022-12-18T10:56:36;34.25;;;24.20;;
40953;SDS011;26686;50.130;8.710;2022-12-18T11:06:56;36.17;;;24.70;;
40953;SDS011;26686;50.130;8.710;2022-12-18T11:12:03;39.83;;;25.58;;
40953;SDS011;26686;50.130;8.710;2022-12-18T11:17:19;33.40;;;24.48;;
40953;SDS011;26686;50.130;8.710;2022-12-18T11:22:30;35.38;;;24.67;;
40953;SDS011;26686;50.130;8.710;2022-12-18T11:27:37;33.75;;;25.08;;
40953;SDS011;26686;50.130;8.710;2022-12-18T11:32:42;34.25;;;25.05;;
40953;SDS011;26686;50.130;8.710;2022-12-18T11:37:48;31.40;;;24.20;;
40953;SDS011;26686;50.130;8.710;2022-12-18T11:48:32;34.65;;;25.55;;
40953;SDS011;26686;50.130;8.710;2022-12-18T11:53:39;32.22;;;25.65;;
40953;SDS011;26686;50.130;8.710;2022-12-18T11:58:48;33.70;;;26.05;;
40953;SDS011;26686;50.130;8.710;2022-12-18T12:09:27;36.75;;;26.27;;
40953;SDS011;26686;50.130;8.710;2022-12-18T12:14:52;35.53;;;24.92;;
40953;SDS011;26686;50.130;8.710;2022-12-18T12:25:47;37.50;;;25.67;;
40953;SDS011;26686;50.130;8.710;2022-12-18T12:41:12;28.38;;;21.35;;
40953;SDS011;26686;50.130;8.710;2022-12-18T12:46:39;35.92;;;24.17;;
40953;SDS011;26686;50.130;8.710;2022-12-18T12:51:49;36.28;;;25.75;;
40953;SDS011;26686;50.130;8.710;2022-12-18T12:57:01;35.33;;;24.48;;
40953;SDS011;26686;50.130;8.710;2022-12-18T13:02:27;33.15;;;23.60;;
40953;SDS011;26686;50.130;8.710;2022-12-18T13:07:39;36.35;;;25.23;;
40953;SDS011;26686;50.130;8.710;2022-12-18T13:13:03;37.00;;;24.90;;
40953;SDS011;26686;50.130;8.710;2022-12-18T13:33:49;35.85;;;22.75;;
40953;SDS011;26686;50.130;8.710;2022-12-18T13:44:31;34.63;;;23.38;;
40953;SDS011;26686;50.130;8.710;2022-12-18T13:49:41;34.30;;;22.23;;
40953;SDS011;26686;50.130;8.710;2022-12-18T13:54:47;37.70;;;23.83;;
40953;SDS011;26686;50.130;8.710;2022-12-18T13:59:52;35.78;;;21.92;;
40953;SDS011;26686;50.130;8.710;2022-12-18T14:04:54;32.33;;;22.85;;
40953;SDS011;26686;50.130;8.710;2022-12-18T14:10:00;35.08;;;23.88;;
40953;SDS011;26686;50.130;8.710;2022-12-18T14:20:31;33.30;;;23.23;;
40953;SDS011;26686;50.130;8.710;2022-12-18T14:25:36;39.10;;;24.58;;
40953;SDS011;26686;50.130;8.710;2022-12-18T14:30:39;33.13;;;23.05;;
40953;SDS011;26686;50.130;8.710;2022-12-18T14:35:53;33.03;;;22.55;;
40953;SDS011;26686;50.130;8.710;2022-12-18T14:41:04;36.95;;;23.45;;
40953;SDS011;26686;50.130;8.710;2022-12-18T14:51:47;30.53;;;21.13;;
40953;SDS011;26686;50.130;8.710;2022-12-18T14:57:03;36.92;;;24.20;;
40953;SDS011;26686;50.130;8.710;2022-12-18T15:02:18;35.03;;;23.38;;
40953;SDS011;26686;50.130;8.710;2022-12-18T15:07:23;37.65;;;23.45;;
40953;SDS011;26686;50.130;8.710;2022-12-18T15:12:32;37.38;;;23.80;;
40953;SDS011;26686;50.130;8.710;2022-12-18T15:17:34;34.08;;;22.73;;
40953;SDS011;26686;50.130;8.710;2022-12-18T15:22:36;33.58;;;22.00;;
40953;SDS011;26686;50.130;8.710;2022-12-18T15:27:38;34.85;;;22.98;;
40953;SDS011;26686;50.130;8.710;2022-12-18T15:32:42;36.10;;;24.65;;
40953;SDS011;26686;50.130;8.710;2022-12-18T15:37:45;40.63;;;25.48;;
40953;SDS011;26686;50.130;8.710;2022-12-18T15:42:47;39.50;;;25.83;;
40953;SDS011;26686;50.130;8.710;2022-12-18T15:48:19;37.65;;;27.58;;
40953;SDS011;26686;50.130;8.710;2022-12-18T15:53:23;40.15;;;26.33;;
40953;SDS011;26686;50.130;8.710;2022-12-18T15:58:26;34.80;;;23.85;;
40953;SDS011;26686;50.130;8.710;2022-12-18T16:03:28;37.83;;;25.67;;
40953;SDS011;26686;50.130;8.710;2022-12-18T16:08:30;36.95;;;24.90;;
40953;SDS011;26686;50.130;8.710;2022-12-18T16:13:31;38.78;;;26.23;;
40953;SDS011;26686;50.130;8.710;2022-12-18T16:18:33;38.83;;;25.45;;
40953;SDS011;26686;50.130;8.710;2022-12-18T16:23:34;36.20;;;25.38;;
40953;SDS011;26686;50.130;8.710;2022-12-18T16:28:36;37.53;;;26.02;;
40953;SDS011;26686;50.130;8.710;2022-12-18T16:33:37;36.90;;;22.80;;
40953;SDS011;26686;50.130;8.710;2022-12-18T16:38:39;36.30;;;24.65;;
40953;SDS011;26686;50.130;8.710;2022-12-18T16:43:42;37.38;;;25.65;;
40953;SDS011;26686;50.130;8.710;2022-12-18T16:48:45;33.20;;;22.67;;
40953;SDS011;26686;50.130;8.710;2022-12-18T16:53:46;32.20;;;22.08;;
40953;SDS011;26686;50.130;8.710;2022-12-18T16:58:55;35.63;;;23.85;;
40953;SDS011;26686;50.130;8.710;2022-12-18T17:04:03;35.75;;;22.77;;
40953;SDS011;26686;50.130;8.710;2022-12-18T17:09:07;36.15;;;23.65;;
40953;SDS011;26686;50.130;8.710;2022-12-18T17:14:15;37.58;;;24.85;;
40953;SDS011;26686;50.130;8.710;2022-12-18T17:19:19;37.25;;;25.13;;
40953;SDS011;26686;50.130;8.710;2022-12-18T17:24:22;44.78;;;29.13;;
40953;SDS011;26686;50.130;8.710;2022-12-18T17:29:23;45.38;;;30.08;;
40953;SDS011;26686;50.130;8.710;2022-12-18T17:34:25;52.00;;;32.45;;
40953;SDS011;26686;50.130;8.710;2022-12-18T17:39:28;61.40;;;39.70;;
40953;SDS011;26686;50.130;8.710;2022-12-18T17:44:32;43.40;;;27.73;;
40953;SDS011;26686;50.130;8.710;2022-12-18T17:49:34;36.70;;;23.73;;
40953;SDS011;26686;50.130;8.710;2022-12-18T17:54:36;37.88;;;25.40;;
40953;SDS011;26686;50.130;8.710;2022-12-18T17:59:40;37.45;;;25.67;;
40953;SDS011;26686;50.130;8.710;2022-12-18T18:04:41;36.30;;;23.77;;
40953;SDS011;26686;50.130;8.710;2022-12-18T18:09:43;37.60;;;27.13;;
40953;SDS011;26686;50.130;8.710;2022-12-18T18:14:44;36.88;;;25.70;;
40953;SDS011;26686;50.130;8.710;2022-12-18T18:19:46;41.30;;;27.38;;
40953;SDS011;26686;50.130;8.710;2022-12-18T18:24:49;36.65;;;25.77;;
40953;SDS011;26686;50.130;8.710;2022-12-18T18:29:51;37.03;;;24.92;;
40953;SDS011;26686;50.130;8.710;2022-12-18T18:34:54;32.15;;;22.77;;
40953;SDS011;26686;50.130;8.710;2022-12-18T18:39:56;31.38;;;19.98;;
40953;SDS011;26686;50.130;8.710;2022-12-18T18:44:58;34.65;;;22.58;;
40953;SDS011;26686;50.130;8.710;2022-12-18T18:49:59;32.90;;;21.63;;
40953;SDS011;26686;50.130;8.710;2022-12-18T18:55:01;36.35;;;22.40;;
40953;SDS011;26686;50.130;8.710;2022-12-18T19:00:14;38.47;;;28.20;;
40953;SDS011;26686;50.130;8.710;2022-12-18T19:05:16;33.47;;;22.23;;
40953;SDS011;26686;50.130;8.710;2022-12-18T19:10:18;32.17;;;22.05;;
40953;SDS011;26686;50.130;8.710;2022-12-18T19:15:19;33.42;;;22.48;;
40953;SDS011;26686;50.130;8.710;2022-12-18T19:20:22;34.38;;;22.92;;
40953;SDS011;26686;50.130;8.710;2022-12-18T19:25:24;30.65;;;21.85;;
40953;SDS011;26686;50.130;8.710;2022-12-18T19:30:41;31.38;;;21.75;;
40953;SDS011;26686;50.130;8.710;2022-12-18T19:35:43;35.40;;;22.55;;
40953;SDS011;26686;50.130;8.710;2022-12-18T19:40:45;32.72;;;22.10;;
40953;SDS011;26686;50.130;8.710;2022-12-18T19:45:52;35.28;;;23.70;;
40953;SDS011;26686;50.130;8.710;2022-12-18T19:50:55;33.13;;;22.90;;
40953;SDS011;26686;50.130;8.710;2022-12-18T19:55:56;31.67;;;22.52;;
40953;SDS011;26686;50.130;8.710;2022-12-18T20:01:00;33.78;;;24.02;;
40953;SDS011;26686;50.130;8.710;2022-12-18T20:06:47;34.95;;;23.83;;
40953;SDS011;26686;50.130;8.710;2022-12-18T20:16:33;34.15;;;23.38;;
40953;SDS011;26686;50.130;8.710;2022-12-18T20:21:35;34.05;;;23.42;;
40953;SDS011;26686;50.130;8.710;2022-12-18T20:26:36;33.83;;;23.50;;
40953;SDS011;26686;50.130;8.710;2022-12-18T20:31:38;31.67;;;22.35;;
40953;SDS011;26686;50.130;8.710;2022-12-18T20:36:40;30.98;;;22.63;;
40953;SDS011;26686;50.130;8.710;2022-12-18T20:41:43;33.58;;;22.85;;
40953;SDS011;26686;50.130;8.710;2022-12-18T20:46:45;32.15;;;22.98;;
40953;SDS011;26686;50.130;8.710;2022-12-18T20:51:50;31.38;;;21.88;;
40953;SDS011;26686;50.130;8.710;2022-12-18T20:56:56;31.77;;;22.73;;
40953;SDS011;26686;50.130;8.710;2022-12-18T21:01:58;32.42;;;22.70;;
40953;SDS011;26686;50.130;8.710;2022-12-18T21:07:01;32.72;;;22.85;;
40953;SDS011;26686;50.130;8.710;2022-12-18T21:12:03;31.02;;;21.58;;
40953;SDS011;26686;50.130;8.710;2022-12-18T21:17:26;33.38;;;23.33;;
40953;SDS011;26686;50.130;8.710;2022-12-18T21:22:28;23.52;;;16.55;;
40953;SDS011;26686;50.130;8.710;2022-12-18T21:27:30;31.48;;;23.02;;
40953;SDS011;26686;50.130;8.710;2022-12-18T21:32:31;32.72;;;22.45;;
40953;SDS011;26686;50.130;8.710;2022-12-18T21:37:33;32.75;;;22.98;;
40953;SDS011;26686;50.130;8.710;2022-12-18T21:42:35;30.65;;;22.25;;
40953;SDS011;26686;50.130;8.710;2022-12-18T21:47:55;31.73;;;21.42;;
40953;SDS011;26686;50.130;8.710;2022-12-18T21:52:57;33.72;;;22.95;;
40953;SDS011;26686;50.130;8.710;2022-12-18T21:57:58;31.80;;;22.00;;
40953;SDS011;26686;50.130;8.710;2022-12-18T22:03:00;34.63;;;22.80;;
40953;SDS011;26686;50.130;8.710;2022-12-18T22:08:19;32.33;;;21.60;;
40953;SDS011;26686;50.130;8.710;2022-12-18T22:13:21;34.00;;;22.70;;
40953;SDS011;26686;50.130;8.710;2022-12-18T22:18:23;31.15;;;21.98;;
40953;SDS011;26686;50.130;8.710;2022-12-18T22:23:24;33.88;;;23.17;;
40953;SDS011;26686;50.130;8.710;2022-12-18T22:28:29;35.35;;;22.75;;
40953;SDS011;26686;50.130;8.710;2022-12-18T22:33:49;32.42;;;22.13;;
40953;SDS011;26686;50.130;8.710;2022-12-18T22:38:51;34.25;;;23.27;;
40953;SDS011;26686;50.130;8.710;2022-12-18T22:43:53;31.15;;;21.38;;
40953;SDS011;26686;50.130;8.710;2022-12-18T22:48:55;33.15;;;21.40;;
40953;SDS011;26686;50.130;8.710;2022-12-18T22:53:56;32.83;;;22.55;;
40953;SDS011;26686;50.130;8.710;2022-12-18T22:58:58;35.65;;;24.90;;
40953;SDS011;26686;50.130;8.710;2022-12-18T23:04:00;37.97;;;26.95;;
40953;SDS011;26686;50.130;8.710;2022-12-18T23:09:01;34.17;;;23.58;;
40953;SDS011;26686;50.130;8.710;2022-12-18T23:14:03;33.17;;;22.63;;
40953;SDS011;26686;50.130;8.710;2022-12-18T23:19:05;37.00;;;23.67;;
40953;SDS011;26686;50.130;8.710;2022-12-18T23:24:07;34.40;;;22.60;;
40953;SDS011;26686;50.130;8.710;2022-12-18T23:29:08;31.77;;;21.27;;
40953;SDS011;26686;50.130;8.710;2022-12-18T23:34:10;32.10;;;22.35;;
40953;SDS011;26686;50.130;8.710;2022-12-18T23:39:13;34.47;;;23.83;;
40953;SDS011;26686;50.130;8.710;2022-12-18T23:44:29;30.33;;;22.80;;
40953;SDS011;26686;50.130;8.710;2022-12-18T23:49:30;33.45;;;23.35;;
40953;SDS011;26686;50.130;8.710;2022-12-18T23:54:32;32.95;;;23.30;;
40953;SDS011;26686;50.130;8.710;2022-12-18T23:59:34;33.40;;;22.88;;
